Hauptseite
METAR-TAF:

METAR-TAF

Flughäfen :

Middle Wallop Airfield

Middle Wallop, England

Breite: 51-09N, Länge: 001-34W, Höhe: 91 m

Beobachtung

Neuester Wetterbericht von vor 1 Stunde und 19 Minuten, um 04:50 UTC
Wind 6 kt aus Nordwest
Temperatur -1°C
Luftfeuchtigkeit 100%
Luftdruck 998 hPa
Sichtweite 10 km oder mehr

METAR: EGVP 230450Z AUTO 31006KT 9999 // FEW008/// SCT025/// M01/M01 Q0998

Zeit: 06:09 (06:09 UTC)

Prognose

Neuester Wetterbericht von vor 10 Stunden und 49 Minuten, um 19:20 UTC
Gültige Prognose vom 22 um 21 UTC bis 22 um 24 UTC
Wind 6 kt aus West/Nordwest
Sichtweite 10 km oder mehr
Leicht bewölkt in der Höhe von 1000 ft
Wahrscheinlichkeit 30% :
Zeitweise
vom 22 um 21 UTC bis 22 um 24 UTC
Aufgelockert bewölkt in der Höhe von 1000 ft

TAF: EGVP 221920Z 2221/2224 30006KT 9999 FEW010 PROB30 TEMPO 2221/2224 SCT010

Wetterbeobachtungen und Prognosen von mehr als 4000 Flughäfen (METAR und TAF Bericht).

Die verfügbaren Stationen werden durch gelbe und rote Markierungen auf der Karte dargestellt.

Führen Sie die Maus auf sie, um den Namen der Station zu sehen.

Darauf klicken, um die Beobachtung von Wetterbeobachtungen und Prognosen zu sehen.

Um die Karte zu ändern : klicken Sie auf den grünen Tasten mit einem schwarzen Kreuz Zum Vergrößern, auf den grünen Button mit einem Gedankenstrich zu verkleinern, oder auf die grünen Pfeile für benachbarte Karten.


METAR-TAF: